createdAt,value
2023-02-03T00:00:34.081Z,32.20
2023-02-03T00:03:03.055Z,30.60
2023-02-03T00:05:33.296Z,33.20
2023-02-03T00:08:03.080Z,31.00
2023-02-03T00:10:35.018Z,31.20
2023-02-03T00:13:03.105Z,32.50
2023-02-03T00:15:31.551Z,28.50
2023-02-03T00:17:59.759Z,29.90
2023-02-03T00:20:29.459Z,25.50
2023-02-03T00:23:08.583Z,30.10
2023-02-03T00:25:37.449Z,28.80
2023-02-03T00:28:07.710Z,25.40
2023-02-03T00:30:36.686Z,30.40
2023-02-03T00:33:05.250Z,30.40
2023-02-03T00:35:35.952Z,30.70
2023-02-03T00:38:06.556Z,28.10
2023-02-03T00:40:36.286Z,23.70
2023-02-03T00:43:04.822Z,23.30
2023-02-03T00:45:34.242Z,23.80
2023-02-03T00:48:03.621Z,24.80
2023-02-03T00:50:32.715Z,29.00
2023-02-03T00:53:01.206Z,30.20
2023-02-03T00:55:29.568Z,30.40
2023-02-03T00:58:00.259Z,31.80
2023-02-03T01:00:29.401Z,28.80
2023-02-03T01:02:58.573Z,29.50
2023-02-03T01:05:27.380Z,29.20
2023-02-03T01:07:57.677Z,28.70
2023-02-03T01:10:25.955Z,32.10
2023-02-03T01:12:57.291Z,35.80
2023-02-03T01:15:26.102Z,33.30
2023-02-03T01:17:57.374Z,33.70
2023-02-03T01:20:26.973Z,29.50
2023-02-03T01:22:55.256Z,30.90
2023-02-03T01:25:24.275Z,28.00
2023-02-03T01:27:53.495Z,31.00
2023-02-03T01:30:21.780Z,32.70
2023-02-03T01:32:49.916Z,35.40
2023-02-03T01:35:18.236Z,34.60
2023-02-03T01:37:46.698Z,37.40
2023-02-03T01:40:14.838Z,31.80
2023-02-03T01:42:43.096Z,36.10
2023-02-03T01:45:13.470Z,33.90
2023-02-03T01:47:54.048Z,35.30
2023-02-03T01:50:31.320Z,41.50
2023-02-03T01:53:04.585Z,56.30
2023-02-03T01:58:19.796Z,38.70
2023-02-03T02:00:50.545Z,33.20
2023-02-03T02:03:24.328Z,38.10
2023-02-03T02:05:56.800Z,31.10
2023-02-03T02:08:24.799Z,31.00
2023-02-03T02:10:52.792Z,30.70
2023-02-03T02:50:52.535Z,28.40
2023-02-03T02:53:22.726Z,28.70
2023-02-03T02:55:52.565Z,33.00
2023-02-03T02:58:21.378Z,34.40
2023-02-03T03:00:49.800Z,33.90
2023-02-03T03:03:21.247Z,31.70
2023-02-03T03:05:55.428Z,28.50
2023-02-03T03:08:50.118Z,28.60
2023-02-03T03:11:18.252Z,25.30
2023-02-03T03:13:49.741Z,28.60
2023-02-03T03:16:19.737Z,29.80
2023-02-03T03:18:49.783Z,30.80
2023-02-03T03:21:23.183Z,27.20
2023-02-03T03:23:51.799Z,26.00
2023-02-03T03:26:32.975Z,33.50
2023-02-03T03:29:09.350Z,31.50
2023-02-03T03:31:37.667Z,27.50
2023-02-03T03:34:06.022Z,35.00
2023-02-03T03:36:43.038Z,34.70
2023-02-03T03:39:21.519Z,29.90
2023-02-03T03:42:23.727Z,33.60
2023-02-03T03:45:02.622Z,29.70
2023-02-03T03:47:41.902Z,37.20
2023-02-03T03:50:12.822Z,32.90
2023-02-03T03:52:41.152Z,33.40
2023-02-03T03:55:11.070Z,34.90
2023-02-03T03:57:45.737Z,32.30
2023-02-03T04:00:16.062Z,28.10
2023-02-03T04:02:44.930Z,37.20
2023-02-03T04:05:13.383Z,34.50
2023-02-03T04:07:43.211Z,35.00
2023-02-03T04:10:29.187Z,33.30
2023-02-03T04:12:57.784Z,36.90
2023-02-03T04:15:25.964Z,29.80
2023-02-03T04:17:57.337Z,30.00
2023-02-03T04:20:25.906Z,33.00
2023-02-03T04:22:54.221Z,31.30
2023-02-03T04:25:22.357Z,34.60
2023-02-03T04:27:51.005Z,36.60
2023-02-03T04:30:19.066Z,41.20
2023-02-03T04:32:47.461Z,34.80
2023-02-03T04:35:15.624Z,38.80
2023-02-03T04:37:44.809Z,26.60
2023-02-03T04:40:12.928Z,36.00
2023-02-03T04:42:41.316Z,33.30
2023-02-03T04:45:10.451Z,31.00
2023-02-03T04:47:40.602Z,31.50
2023-02-03T04:50:09.149Z,32.70
2023-02-03T04:52:37.194Z,28.40
2023-02-03T04:55:05.797Z,34.00
2023-02-03T04:57:35.620Z,30.90
2023-02-03T05:00:03.991Z,35.30
2023-02-03T05:02:33.625Z,32.90
2023-02-03T05:05:01.696Z,34.90
2023-02-03T05:07:29.793Z,37.70
2023-02-03T05:09:57.823Z,37.20
2023-02-03T05:12:26.591Z,33.40
2023-02-03T05:14:55.669Z,30.30
2023-02-03T05:17:23.866Z,29.90
2023-02-03T05:19:51.905Z,30.20
2023-02-03T05:22:20.122Z,33.90
2023-02-03T05:24:48.113Z,40.50
2023-02-03T05:27:16.093Z,31.00
2023-02-03T05:29:44.116Z,31.20
2023-02-03T05:32:12.119Z,27.50
2023-02-03T05:34:42.292Z,25.70
2023-02-03T05:37:10.444Z,30.20
2023-02-03T05:39:38.779Z,27.70
2023-02-03T05:42:07.182Z,27.40
2023-02-03T05:44:35.680Z,29.20
2023-02-03T05:47:03.639Z,30.80
2023-02-03T05:49:35.664Z,28.70
2023-02-03T05:52:06.768Z,26.10
2023-02-03T05:54:34.960Z,30.00
2023-02-03T05:57:03.030Z,27.10
2023-02-03T05:59:31.005Z,22.00
2023-02-03T06:01:59.187Z,27.70
2023-02-03T06:04:27.266Z,22.50
2023-02-03T06:06:55.373Z,37.00
2023-02-03T06:09:23.338Z,32.80
2023-02-03T06:11:52.882Z,23.50
2023-02-03T06:14:21.180Z,28.40
2023-02-03T06:16:49.551Z,26.30
2023-02-03T06:19:19.013Z,23.90
2023-02-03T06:21:47.178Z,23.20
2023-02-03T06:24:15.406Z,24.20
2023-02-03T06:26:43.428Z,23.30
2023-02-03T06:29:11.567Z,23.50
2023-02-03T06:31:39.741Z,24.60
2023-02-03T06:34:08.978Z,22.10
2023-02-03T06:36:37.044Z,22.50
2023-02-03T06:39:05.146Z,24.50
2023-02-03T06:41:33.220Z,18.50
2023-02-03T06:44:01.191Z,22.60
2023-02-03T06:46:30.560Z,24.70
2023-02-03T06:48:58.864Z,20.10
2023-02-03T06:51:27.998Z,20.50
2023-02-03T06:53:58.956Z,20.30
2023-02-03T06:56:27.040Z,17.70
2023-02-03T06:58:55.037Z,17.80
2023-02-03T07:01:23.390Z,18.10
2023-02-03T07:03:51.965Z,12.70
2023-02-03T07:06:20.029Z,17.90
2023-02-03T07:08:48.009Z,18.00
2023-02-03T07:11:16.921Z,12.70
2023-02-03T07:13:45.249Z,12.60
2023-02-03T07:16:13.862Z,19.90
2023-02-03T07:18:49.196Z,15.00
2023-02-03T07:21:17.495Z,18.20
2023-02-03T07:23:49.552Z,15.40
2023-02-03T07:26:18.607Z,16.50
2023-02-03T07:28:49.034Z,14.10
2023-02-03T07:31:17.243Z,11.50
2023-02-03T07:33:45.475Z,10.00
2023-02-03T07:36:13.679Z,10.70
2023-02-03T07:38:41.925Z,11.50
2023-02-03T07:41:10.343Z,10.50
2023-02-03T07:43:39.274Z,8.50
2023-02-03T07:46:08.581Z,8.10
2023-02-03T07:48:38.528Z,7.50
2023-02-03T07:51:06.811Z,8.40
2023-02-03T07:53:35.839Z,6.10
2023-02-03T07:56:04.780Z,5.10
2023-02-03T07:58:32.955Z,4.00
2023-02-03T08:01:01.146Z,5.20
2023-02-03T08:03:30.772Z,4.50
2023-02-03T08:06:01.590Z,8.20
2023-02-03T08:08:29.666Z,4.30
2023-02-03T08:10:58.159Z,2.80
2023-02-03T08:13:26.748Z,3.90
2023-02-03T08:15:57.921Z,3.90
2023-02-03T08:18:25.950Z,3.30
2023-02-03T08:20:54.514Z,2.90
2023-02-03T08:23:22.586Z,3.30
2023-02-03T08:25:52.135Z,3.40
2023-02-03T08:28:20.412Z,3.70
2023-02-03T08:30:49.025Z,3.30
2023-02-03T08:33:17.945Z,4.80
2023-02-03T08:35:48.333Z,3.10
2023-02-03T08:38:16.797Z,2.80
2023-02-03T08:40:45.100Z,2.80
2023-02-03T08:43:16.040Z,3.40
2023-02-03T08:45:46.546Z,3.10
2023-02-03T08:48:18.475Z,3.00
2023-02-03T08:50:52.895Z,2.60
2023-02-03T08:53:22.988Z,4.30
2023-02-03T08:55:52.503Z,3.80
2023-02-03T08:58:21.654Z,3.00
2023-02-03T09:00:50.056Z,3.80
2023-02-03T09:03:18.363Z,3.60
2023-02-03T09:05:47.054Z,3.60
2023-02-03T09:08:17.592Z,7.70
2023-02-03T09:10:47.569Z,4.30
2023-02-03T09:13:19.797Z,4.60
2023-02-03T09:15:49.871Z,4.40
2023-02-03T09:18:18.338Z,4.00
2023-02-03T09:20:47.474Z,4.40
2023-02-03T09:23:18.060Z,3.70
2023-02-03T09:25:49.871Z,4.20
2023-02-03T09:28:18.361Z,4.20
2023-02-03T09:30:47.718Z,4.90
2023-02-03T09:33:19.072Z,4.50
2023-02-03T09:35:54.616Z,4.40
2023-02-03T09:38:22.884Z,4.50
2023-02-03T09:41:11.294Z,5.60
2023-02-03T12:07:05.217Z,7.60
2023-02-03T12:10:22.665Z,9.20
2023-02-03T12:12:57.938Z,10.10
2023-02-03T12:15:34.672Z,6.20
2023-02-03T12:24:36.002Z,6.60
2023-02-03T12:27:23.239Z,5.40
2023-02-03T12:30:03.732Z,5.80
2023-02-03T12:32:55.830Z,5.90
2023-02-03T12:35:32.132Z,7.90
2023-02-03T12:38:16.400Z,7.70
2023-02-03T12:41:01.923Z,8.00
2023-02-03T12:43:33.455Z,5.80
2023-02-03T12:46:05.787Z,6.50
2023-02-03T12:48:52.305Z,7.30
2023-02-03T12:51:49.911Z,5.70
2023-02-03T12:54:39.241Z,6.90
2023-02-03T12:57:24.885Z,5.20
2023-02-03T13:00:01.899Z,6.30
2023-02-03T13:02:33.285Z,5.80
2023-02-03T13:05:16.128Z,6.30
2023-02-03T13:07:52.505Z,6.10
2023-02-03T13:10:32.502Z,5.10
2023-02-03T13:13:00.873Z,5.10
2023-02-03T13:15:53.565Z,7.20
2023-02-03T13:18:31.677Z,5.70
2023-02-03T13:20:59.701Z,6.00
2023-02-03T13:23:27.971Z,5.10
2023-02-03T13:26:17.669Z,5.90
2023-02-03T13:29:04.845Z,5.70
2023-02-03T13:31:45.177Z,4.50
2023-02-03T13:34:55.095Z,5.80
2023-02-03T13:37:31.099Z,5.20
2023-02-03T13:40:17.815Z,10.30
2023-02-03T13:42:48.319Z,7.20
2023-02-03T13:45:34.293Z,4.90
2023-02-03T13:48:43.860Z,7.30
2023-02-03T13:51:22.779Z,7.80
2023-02-03T13:53:51.683Z,6.70
2023-02-03T13:56:24.017Z,7.40
2023-02-03T13:59:14.801Z,7.20
2023-02-03T14:01:45.833Z,8.00
2023-02-03T14:04:23.987Z,8.60
2023-02-03T14:07:26.256Z,6.40
2023-02-03T14:10:14.085Z,5.90
2023-02-03T14:12:51.347Z,4.70
2023-02-03T14:15:22.400Z,5.30
2023-02-03T14:17:50.919Z,4.80
2023-02-03T14:20:25.324Z,4.40
2023-02-03T14:22:54.387Z,3.80
2023-02-03T14:25:24.769Z,5.10
2023-02-03T14:28:00.243Z,4.30
2023-02-03T14:30:28.440Z,4.30
2023-02-03T14:33:00.524Z,4.40
2023-02-03T14:35:32.246Z,5.20
2023-02-03T14:38:05.264Z,4.40
2023-02-03T14:40:39.421Z,6.40
2023-02-03T14:43:45.592Z,6.90
2023-02-03T14:46:22.698Z,7.00
2023-02-03T14:49:20.792Z,12.40
2023-02-03T14:52:10.853Z,4.70
2023-02-03T14:55:01.321Z,6.50
2023-02-03T14:57:49.272Z,4.60
2023-02-03T15:00:20.452Z,3.80
2023-02-03T15:03:10.254Z,3.50
2023-02-03T15:05:43.489Z,4.40
2023-02-03T15:10:59.253Z,3.10
2023-02-03T15:13:31.446Z,3.90
2023-02-03T15:16:04.496Z,3.60
2023-02-03T15:18:36.328Z,4.00
2023-02-03T15:21:04.564Z,3.50
2023-02-03T15:23:43.218Z,3.50
2023-02-03T15:26:14.033Z,3.70
2023-02-03T15:28:42.708Z,6.60
2023-02-03T15:31:20.458Z,4.50
2023-02-03T15:33:50.121Z,7.00
2023-02-03T15:36:21.976Z,5.00
2023-02-03T15:38:57.095Z,5.00
2023-02-03T15:41:26.063Z,5.40
2023-02-03T15:44:00.315Z,4.70
2023-02-03T15:46:33.276Z,5.60
2023-02-03T15:51:36.320Z,7.80
2023-02-03T15:54:19.261Z,5.50
2023-02-03T15:56:55.093Z,4.80
2023-02-03T15:59:43.030Z,4.70
2023-02-03T16:02:33.452Z,5.70
2023-02-03T16:05:06.652Z,5.20
2023-02-03T16:10:30.677Z,3.90
2023-02-03T16:13:20.012Z,5.80
2023-02-03T16:16:12.167Z,4.90
2023-02-03T16:18:40.476Z,4.60
2023-02-03T16:21:27.571Z,5.60
2023-02-03T16:23:55.706Z,5.30
2023-02-03T16:26:28.217Z,4.20
2023-02-03T16:29:27.023Z,4.20
2023-02-03T16:32:14.293Z,4.20
2023-02-03T16:35:01.361Z,5.00
2023-02-03T16:37:52.054Z,4.70
2023-02-03T16:40:40.768Z,5.90
2023-02-03T16:43:32.889Z,6.00
2023-02-03T16:46:19.766Z,5.50
2023-02-03T16:49:06.711Z,9.80
2023-02-03T16:51:39.352Z,5.40
2023-02-03T16:56:39.226Z,5.00
2023-02-03T16:59:07.220Z,6.30
2023-02-03T17:01:37.081Z,5.30
2023-02-03T17:04:05.517Z,7.90
2023-02-03T17:06:38.140Z,7.00
2023-02-03T17:09:06.841Z,6.20
2023-02-03T17:11:34.875Z,8.50
2023-02-03T17:14:03.727Z,5.20
2023-02-03T17:16:33.423Z,7.90
2023-02-03T17:19:01.603Z,6.80
2023-02-03T17:21:30.124Z,7.60
2023-02-03T17:23:59.705Z,7.50
2023-02-03T17:26:28.295Z,8.70
2023-02-03T17:28:58.742Z,6.30
2023-02-03T17:31:27.401Z,7.00
2023-02-03T17:33:56.548Z,6.50
2023-02-03T17:36:24.877Z,6.40
2023-02-03T17:55:32.073Z,8.50
2023-02-03T17:58:00.415Z,8.50
2023-02-03T18:00:29.021Z,7.50
2023-02-03T19:37:26.800Z,13.40
2023-02-03T19:39:55.100Z,12.20
2023-02-03T19:42:23.388Z,11.30
2023-02-03T19:44:52.080Z,10.50
2023-02-03T19:47:20.271Z,11.20
2023-02-03T19:49:49.510Z,10.10
2023-02-03T19:52:17.639Z,8.00
2023-02-03T19:54:47.422Z,9.50
2023-02-03T19:57:15.393Z,8.60
2023-02-03T19:59:45.941Z,9.80
2023-02-03T20:02:27.103Z,9.50
2023-02-03T20:04:55.951Z,11.80
2023-02-03T20:07:28.771Z,8.50
2023-02-03T20:09:58.137Z,8.10
2023-02-03T20:12:26.205Z,9.30
2023-02-03T20:14:56.089Z,9.30
2023-02-03T20:17:24.755Z,7.20
2023-02-03T20:19:52.769Z,7.90
2023-02-03T20:22:21.428Z,8.60
2023-02-03T20:24:49.821Z,6.10
2023-02-03T20:27:18.077Z,8.90
2023-02-03T20:29:47.686Z,6.60
2023-02-03T20:32:16.011Z,11.30
2023-02-03T20:34:45.661Z,10.10
2023-02-03T20:37:15.227Z,9.40
2023-02-03T20:39:45.313Z,6.40
2023-02-03T20:42:16.718Z,9.40
2023-02-03T20:44:45.705Z,9.20
2023-02-03T20:47:17.611Z,10.20
2023-02-03T20:49:46.509Z,9.70
2023-02-03T20:52:16.837Z,8.80
2023-02-03T20:54:46.523Z,6.20
2023-02-03T20:57:17.664Z,8.40
2023-02-03T20:59:46.306Z,8.80
2023-02-03T21:02:23.431Z,7.50
2023-02-03T21:04:58.002Z,7.10
2023-02-03T21:07:30.900Z,7.60
2023-02-03T21:10:00.024Z,9.30
2023-02-03T21:12:28.889Z,8.30
2023-02-03T21:14:59.414Z,7.50
2023-02-03T21:17:27.901Z,8.20
2023-02-03T21:19:56.445Z,7.30
2023-02-03T21:22:26.437Z,7.60
2023-02-03T21:24:57.114Z,5.80
2023-02-03T21:27:29.968Z,5.60
2023-02-03T21:29:58.948Z,5.50
2023-02-03T21:32:37.411Z,6.00
2023-02-03T21:35:37.226Z,6.90
2023-02-03T21:38:37.824Z,6.30
2023-02-03T21:47:16.054Z,4.30
2023-02-03T21:49:44.224Z,5.00
2023-02-03T21:52:15.488Z,4.60
2023-02-03T21:54:44.635Z,5.50
2023-02-03T21:57:14.311Z,6.90
2023-02-03T21:59:46.829Z,6.60
2023-02-03T22:02:39.731Z,5.40
2023-02-03T22:05:17.096Z,5.40
2023-02-03T22:07:46.507Z,3.80
2023-02-03T22:10:17.622Z,4.20
2023-02-03T22:12:46.949Z,7.00
2023-02-03T22:15:16.078Z,3.50
2023-02-03T22:17:48.280Z,4.50
2023-02-03T22:20:17.988Z,3.60
2023-02-03T22:22:46.966Z,3.90
2023-02-03T22:25:16.206Z,4.00
2023-02-03T22:27:45.085Z,4.60
2023-02-03T22:30:14.711Z,3.80
2023-02-03T22:32:44.775Z,4.20
2023-02-03T22:35:14.259Z,4.30
2023-02-03T22:37:42.478Z,3.60
2023-02-03T22:40:12.721Z,7.10
2023-02-03T22:42:41.594Z,6.80
2023-02-03T22:45:09.908Z,4.30
2023-02-03T22:47:38.856Z,3.80
2023-02-03T22:50:07.686Z,3.50
2023-02-03T22:52:36.091Z,4.70
2023-02-03T22:55:10.974Z,4.80
2023-02-03T22:57:39.363Z,4.50
2023-02-03T23:00:11.479Z,5.30
2023-02-03T23:02:40.286Z,4.10
2023-02-03T23:05:09.196Z,5.70
2023-02-03T23:07:37.843Z,4.00
2023-02-03T23:10:08.826Z,5.90
2023-02-03T23:12:39.726Z,4.20
2023-02-03T23:15:09.644Z,3.30
2023-02-03T23:17:38.333Z,3.70
2023-02-03T23:20:09.451Z,3.90
2023-02-03T23:22:38.047Z,3.70
2023-02-03T23:25:06.415Z,3.80
2023-02-03T23:27:34.900Z,5.50
2023-02-03T23:30:05.240Z,5.80
2023-02-03T23:32:33.990Z,3.70
2023-02-03T23:35:21.624Z,4.80
2023-02-03T23:37:50.373Z,3.90
2023-02-03T23:40:18.479Z,4.80
2023-02-03T23:42:47.086Z,3.40
2023-02-03T23:45:15.718Z,3.70
2023-02-03T23:47:44.265Z,8.80
2023-02-03T23:50:14.898Z,4.50
2023-02-03T23:52:43.006Z,4.10
2023-02-03T23:55:13.702Z,3.50
2023-02-03T23:57:43.354Z,4.10
